createdAt,value
2018-04-14T00:24:34.086Z,9.33
2018-04-14T00:27:01.752Z,9.07
2018-04-14T00:29:29.394Z,8.90
2018-04-14T00:31:57.359Z,8.47
2018-04-14T00:34:25.514Z,8.97
2018-04-14T00:36:55.336Z,8.33
2018-04-14T00:39:23.274Z,8.90
2018-04-14T00:41:51.203Z,7.80
2018-04-14T00:44:19.136Z,8.33
2018-04-14T00:46:46.959Z,7.33
2018-04-14T00:49:14.943Z,8.23
2018-04-14T00:51:43.451Z,9.20
2018-04-14T00:54:15.354Z,7.87
2018-04-14T00:56:43.221Z,7.60
2018-04-14T00:59:11.700Z,7.97
2018-04-14T01:01:40.037Z,8.10
2018-04-14T01:04:07.807Z,7.63
2018-04-14T01:06:35.555Z,7.53
2018-04-14T01:09:03.626Z,8.03
2018-04-14T01:11:31.448Z,7.03
2018-04-14T01:13:59.295Z,7.43
2018-04-14T01:16:27.200Z,7.90
2018-04-14T01:18:56.122Z,8.20
2018-04-14T01:21:24.007Z,7.53
2018-04-14T01:23:52.060Z,8.00
2018-04-14T01:26:20.647Z,7.73
2018-04-14T01:28:50.016Z,7.73
2018-04-14T01:31:18.681Z,8.13
2018-04-14T01:33:46.567Z,7.27
2018-04-14T01:36:14.868Z,7.33
2018-04-14T01:38:43.455Z,7.33
2018-04-14T01:41:14.010Z,7.40
2018-04-14T01:43:42.474Z,7.03
2018-04-14T01:46:11.656Z,7.70
2018-04-14T01:48:41.123Z,8.00
2018-04-14T01:51:09.411Z,7.20
2018-04-14T01:53:38.448Z,6.60
2018-04-14T01:56:22.420Z,7.50
2018-04-14T01:58:51.645Z,7.40
2018-04-14T02:01:20.091Z,7.70
2018-04-14T02:03:49.439Z,7.40
2018-04-14T02:06:18.433Z,7.50
2018-04-14T02:08:46.979Z,7.10
2018-04-14T02:11:16.762Z,6.53
2018-04-14T02:13:46.194Z,8.20
2018-04-14T02:16:14.593Z,7.47
2018-04-14T02:18:46.171Z,6.63
2018-04-14T02:21:15.234Z,6.83
2018-04-14T02:23:43.114Z,7.00
2018-04-14T02:26:10.912Z,7.10
2018-04-14T02:28:38.604Z,6.63
2018-04-14T02:31:07.097Z,6.50
2018-04-14T02:33:35.511Z,6.83
2018-04-14T02:36:03.288Z,6.70
2018-04-14T02:38:31.774Z,7.83
2018-04-14T02:40:59.848Z,6.83
2018-04-14T02:43:28.400Z,7.17
2018-04-14T02:45:56.216Z,6.83
2018-04-14T02:48:23.960Z,7.50
2018-04-14T02:50:52.767Z,6.73
2018-04-14T02:53:20.726Z,7.43
2018-04-14T02:55:49.273Z,6.03
2018-04-14T02:58:17.348Z,7.20
2018-04-14T03:00:45.683Z,6.83
2018-04-14T03:03:13.498Z,6.83
2018-04-14T03:05:41.464Z,7.00
2018-04-14T03:08:09.216Z,6.27
2018-04-14T03:10:36.956Z,7.03
2018-04-14T03:13:04.853Z,7.50
2018-04-14T03:15:33.659Z,7.07
2018-04-14T03:18:02.342Z,7.00
2018-04-14T03:20:30.139Z,6.90
2018-04-14T03:22:57.981Z,7.60
2018-04-14T03:25:26.065Z,6.33
2018-04-14T03:27:54.932Z,6.50
2018-04-14T03:30:22.765Z,5.93
2018-04-14T03:32:50.521Z,6.87
2018-04-14T03:35:19.179Z,6.80
2018-04-14T03:37:47.056Z,6.77
2018-04-14T03:40:14.712Z,7.20
2018-04-14T03:42:42.407Z,6.40
2018-04-14T03:45:10.213Z,6.60
2018-04-14T03:47:38.057Z,6.67
2018-04-14T03:50:06.202Z,7.20
2018-04-14T03:52:35.283Z,7.47
2018-04-14T03:55:03.526Z,6.77
2018-04-14T03:57:31.480Z,6.40
2018-04-14T04:00:00.155Z,7.10
2018-04-14T04:02:27.854Z,6.63
2018-04-14T04:04:56.403Z,7.83
2018-04-14T04:07:24.224Z,6.97
2018-04-14T04:09:52.203Z,6.97
2018-04-14T04:12:20.358Z,7.33
2018-04-14T04:14:48.542Z,6.83
2018-04-14T04:17:18.169Z,7.50
2018-04-14T04:19:46.139Z,6.00
2018-04-14T04:22:13.840Z,7.70
2018-04-14T04:24:43.870Z,7.23
2018-04-14T04:27:12.427Z,7.00
2018-04-14T04:29:43.889Z,7.20
2018-04-14T04:32:11.616Z,6.50
2018-04-14T04:34:39.540Z,6.83
2018-04-14T04:37:07.360Z,6.43
2018-04-14T04:39:35.866Z,6.90
2018-04-14T04:42:04.381Z,7.50
2018-04-14T04:44:32.236Z,8.10
2018-04-14T04:47:00.633Z,7.67
2018-04-14T04:49:28.774Z,7.10
2018-04-14T04:51:56.535Z,7.67
2018-04-14T04:54:24.913Z,7.60
2018-04-14T04:56:52.825Z,7.60
2018-04-14T04:59:21.319Z,7.70
2018-04-14T05:01:49.716Z,7.70
2018-04-14T05:04:18.190Z,7.60
2018-04-14T05:06:46.798Z,8.40
2018-04-14T05:09:14.540Z,8.03
2018-04-14T05:11:42.648Z,7.97
2018-04-14T05:14:10.815Z,7.33
2018-04-14T05:16:38.576Z,7.17
2018-04-14T05:19:06.267Z,7.37
2018-04-14T05:21:34.808Z,8.07
2018-04-14T05:24:03.335Z,7.20
2018-04-14T05:26:31.114Z,7.67
2018-04-14T05:28:59.376Z,9.13
2018-04-14T05:31:27.282Z,7.00
2018-04-14T05:33:55.213Z,7.00
2018-04-14T05:36:23.900Z,7.87
2018-04-14T05:38:51.585Z,7.63
2018-04-14T05:41:19.446Z,7.73
2018-04-14T05:43:47.362Z,7.73
2018-04-14T05:46:15.030Z,7.50
2018-04-14T05:48:42.935Z,7.80
2018-04-14T05:51:10.689Z,8.13
2018-04-14T05:53:38.748Z,7.03
2018-04-14T05:56:06.767Z,7.87
2018-04-14T05:58:34.824Z,8.50
2018-04-14T06:01:03.547Z,7.90
2018-04-14T06:03:31.930Z,8.20
2018-04-14T06:05:59.828Z,9.50
2018-04-14T06:08:27.699Z,8.40
2018-04-14T06:10:55.908Z,8.20
2018-04-14T06:13:23.527Z,7.73
2018-04-14T06:15:52.213Z,7.63
2018-04-14T06:18:21.557Z,7.73
2018-04-14T06:20:49.318Z,7.57
2018-04-14T06:23:17.269Z,7.50
2018-04-14T06:25:46.053Z,8.37
2018-04-14T06:28:14.049Z,7.20
2018-04-14T06:30:41.928Z,7.40
2018-04-14T06:33:10.114Z,7.37
2018-04-14T06:35:38.134Z,7.00
2018-04-14T06:38:06.731Z,7.50
2018-04-14T06:40:34.780Z,7.37
2018-04-14T06:43:03.556Z,7.90
2018-04-14T06:45:32.090Z,7.77
2018-04-14T06:47:59.799Z,6.63
2018-04-14T06:50:27.591Z,7.10
2018-04-14T06:52:56.010Z,8.07
2018-04-14T06:55:23.689Z,8.20
2018-04-14T06:57:51.477Z,7.10
2018-04-14T07:00:19.930Z,7.80
2018-04-14T07:02:48.540Z,7.50
2018-04-14T07:05:17.526Z,7.37
2018-04-14T07:07:45.190Z,8.00
2018-04-14T07:10:13.231Z,7.50
2018-04-14T07:12:41.576Z,7.13
2018-04-14T07:15:09.237Z,7.90
2018-04-14T07:17:36.918Z,7.97
2018-04-14T07:20:05.702Z,6.83
2018-04-14T07:22:33.458Z,7.80
2018-04-14T07:25:01.374Z,7.13
2018-04-14T07:27:29.349Z,6.40
2018-04-14T07:29:58.271Z,7.07
2018-04-14T07:32:25.980Z,7.53
2018-04-14T07:34:53.716Z,7.80
2018-04-14T07:37:21.838Z,7.30
2018-04-14T07:39:50.019Z,8.47
2018-04-14T07:42:17.937Z,7.80
2018-04-14T07:44:46.402Z,7.33
2018-04-14T07:47:14.275Z,7.80
2018-04-14T07:49:42.054Z,7.53
2018-04-14T07:52:09.872Z,7.90
2018-04-14T07:54:37.710Z,7.43
2018-04-14T07:57:05.281Z,7.77
2018-04-14T07:59:32.942Z,7.53
2018-04-14T08:02:00.836Z,7.33
2018-04-14T08:04:28.830Z,7.90
2018-04-14T08:06:56.890Z,7.50
2018-04-14T08:09:24.516Z,7.60
2018-04-14T08:11:52.303Z,8.00
2018-04-14T08:14:20.541Z,7.73
2018-04-14T08:16:48.446Z,7.40
2018-04-14T08:19:16.632Z,7.97
2018-04-14T08:21:44.384Z,6.83
2018-04-14T08:24:12.425Z,8.40
2018-04-14T08:26:40.099Z,8.33
2018-04-14T08:29:07.898Z,7.30
2018-04-14T08:31:36.453Z,7.60
2018-04-14T08:34:04.117Z,7.30
2018-04-14T08:36:32.445Z,7.40
2018-04-14T08:39:00.432Z,7.50
2018-04-14T08:41:28.352Z,7.77
2018-04-14T08:43:56.079Z,8.00
2018-04-14T08:46:23.914Z,7.97
2018-04-14T08:48:52.040Z,7.73
2018-04-14T08:51:19.718Z,9.13
2018-04-14T08:53:47.498Z,8.13
2018-04-14T08:56:15.316Z,7.30
2018-04-14T08:58:43.376Z,8.10
2018-04-14T09:01:11.161Z,7.37
2018-04-14T09:03:39.359Z,7.50
2018-04-14T09:06:07.194Z,7.80
2018-04-14T09:08:35.674Z,6.90
2018-04-14T09:11:03.461Z,6.80
2018-04-14T09:13:31.293Z,7.70
2018-04-14T09:16:00.235Z,8.30
2018-04-14T09:18:29.508Z,7.50
2018-04-14T09:20:57.401Z,7.80
2018-04-14T09:23:25.247Z,7.63
2018-04-14T09:25:54.025Z,7.50
2018-04-14T09:28:21.934Z,8.07
2018-04-14T09:30:50.062Z,6.10
2018-04-14T09:33:19.194Z,7.57
2018-04-14T09:35:48.004Z,7.33
2018-04-14T09:38:16.542Z,6.50
2018-04-14T09:40:45.056Z,7.10
2018-04-14T09:43:12.918Z,7.17
2018-04-14T09:45:43.112Z,6.83
2018-04-14T09:48:10.817Z,7.33
2018-04-14T09:50:38.477Z,7.13
2018-04-14T09:53:06.466Z,6.80
2018-04-14T09:55:34.229Z,7.00
2018-04-14T09:58:04.040Z,6.27
2018-04-14T10:00:31.851Z,6.70
2018-04-14T10:02:59.797Z,7.40
2018-04-14T10:05:28.710Z,6.13
2018-04-14T10:07:56.532Z,7.30
2018-04-14T10:10:24.392Z,6.40
2018-04-14T10:12:52.608Z,6.30
2018-04-14T10:15:20.518Z,7.23
2018-04-14T10:17:48.314Z,7.37
2018-04-14T10:20:16.717Z,7.87
2018-04-14T10:22:45.494Z,7.40
2018-04-14T10:25:13.311Z,7.40
2018-04-14T10:27:42.778Z,6.57
2018-04-14T10:30:11.477Z,6.57
2018-04-14T10:32:40.067Z,8.20
2018-04-14T10:35:11.713Z,7.67
2018-04-14T10:37:41.653Z,6.87
2018-04-14T10:40:10.264Z,7.60
2018-04-14T10:42:38.030Z,36.53
2018-04-14T10:45:07.789Z,34.07
2018-04-14T10:47:37.457Z,33.77
2018-04-14T10:50:06.990Z,38.80
2018-04-14T10:52:35.972Z,35.30
2018-04-14T10:55:04.686Z,34.83
2018-04-14T10:57:33.176Z,35.07
2018-04-14T11:00:01.679Z,35.57
2018-04-14T11:02:29.711Z,47.03
2018-04-14T11:04:59.200Z,19.20
2018-04-14T11:07:28.933Z,27.03
2018-04-14T11:09:58.140Z,30.23
2018-04-14T11:12:26.096Z,27.63
2018-04-14T11:14:53.913Z,26.20
2018-04-14T11:17:23.026Z,24.87
2018-04-14T11:19:51.946Z,23.30
2018-04-14T11:22:20.148Z,22.57
2018-04-14T11:24:49.172Z,22.77
2018-04-14T11:27:16.947Z,23.60
2018-04-14T11:29:45.170Z,21.07
2018-04-14T11:32:14.411Z,21.30
2018-04-14T11:34:46.501Z,21.37
2018-04-14T11:37:15.771Z,19.63
2018-04-14T11:39:44.182Z,18.97
2018-04-14T11:42:12.165Z,19.13
2018-04-14T11:44:40.300Z,19.47
2018-04-14T11:47:08.249Z,17.30
2018-04-14T11:49:36.980Z,19.03
2018-04-14T11:52:09.168Z,16.07
2018-04-14T11:54:37.241Z,16.57
2018-04-14T11:57:05.405Z,15.83
2018-04-14T11:59:33.118Z,15.17
2018-04-14T12:02:00.839Z,13.50
2018-04-14T12:04:29.320Z,12.87
2018-04-14T12:06:58.078Z,12.80
2018-04-14T12:09:26.256Z,12.57
2018-04-14T12:11:54.255Z,13.73
2018-04-14T12:14:22.190Z,13.03
2018-04-14T12:16:49.987Z,13.50
2018-04-14T12:19:18.117Z,15.03
2018-04-14T12:21:45.976Z,13.90
2018-04-14T12:24:13.815Z,13.07
2018-04-14T12:26:42.333Z,14.17
2018-04-14T12:29:10.322Z,13.30
2018-04-14T12:31:38.215Z,14.37
2018-04-14T12:34:07.582Z,13.33
2018-04-14T12:36:35.964Z,14.07
2018-04-14T12:39:04.150Z,14.07
2018-04-14T12:41:32.523Z,12.20
2018-04-14T12:44:00.375Z,13.70
2018-04-14T12:46:28.458Z,12.17
2018-04-14T12:48:56.341Z,11.90
2018-04-14T12:51:24.032Z,12.27
2018-04-14T12:53:51.968Z,13.57
2018-04-14T12:56:19.983Z,13.00
2018-04-14T12:58:47.973Z,12.90
2018-04-14T13:01:16.194Z,12.73
2018-04-14T13:03:43.944Z,14.90
2018-04-14T13:06:11.865Z,12.03
2018-04-14T13:08:39.729Z,13.40
2018-04-14T13:11:07.861Z,12.00
2018-04-14T13:13:35.671Z,12.97
2018-04-14T13:16:04.397Z,13.17
2018-04-14T13:18:32.436Z,13.80
2018-04-14T13:21:01.398Z,13.40
2018-04-14T13:23:29.180Z,13.23
2018-04-14T13:25:57.415Z,13.70
2018-04-14T13:28:25.177Z,15.20
2018-04-14T13:30:52.900Z,12.73
2018-04-14T13:33:21.202Z,14.27
2018-04-14T13:35:48.920Z,14.23
2018-04-14T13:38:17.749Z,14.27
2018-04-14T13:40:45.533Z,16.70
2018-04-14T13:43:13.599Z,13.77
2018-04-14T13:45:41.493Z,13.30
2018-04-14T13:48:10.031Z,14.37
2018-04-14T13:50:37.874Z,28.13
2018-04-14T13:53:06.324Z,18.57
2018-04-14T13:55:34.370Z,17.90
2018-04-14T13:58:02.442Z,16.87
2018-04-14T14:00:30.236Z,19.73
2018-04-14T14:02:57.890Z,16.83
2018-04-14T14:05:26.088Z,18.60
2018-04-14T14:07:54.661Z,17.87
2018-04-14T14:10:23.551Z,17.17
2018-04-14T14:12:51.349Z,15.50
2018-04-14T14:15:20.662Z,13.57
2018-04-14T14:17:48.498Z,13.77
2018-04-14T14:20:17.557Z,12.47
2018-04-14T14:22:45.292Z,12.80
2018-04-14T14:25:15.824Z,12.07
2018-04-14T14:27:46.871Z,11.37
2018-04-14T14:30:14.897Z,12.30
2018-04-14T14:32:43.429Z,10.63
2018-04-14T14:35:13.864Z,10.53
2018-04-14T14:37:42.366Z,10.10
2018-04-14T14:40:10.365Z,10.23
2018-04-14T14:42:38.642Z,9.00
2018-04-14T14:45:06.397Z,9.60
2018-04-14T14:47:34.512Z,9.10
2018-04-14T14:50:03.184Z,9.57
2018-04-14T14:52:31.406Z,9.93
2018-04-14T14:54:59.341Z,9.37
2018-04-14T14:57:27.974Z,9.63
2018-04-14T14:59:55.698Z,9.57
2018-04-14T15:02:23.572Z,10.73
2018-04-14T15:04:52.648Z,10.10
2018-04-14T15:07:20.725Z,10.20
2018-04-14T15:09:49.443Z,10.60
2018-04-14T15:12:17.132Z,10.23
2018-04-14T15:14:45.364Z,9.30
2018-04-14T15:17:13.171Z,8.87
2018-04-14T15:19:40.893Z,8.87
2018-04-14T15:22:10.475Z,9.03
2018-04-14T15:24:38.197Z,10.30
2018-04-14T15:27:06.094Z,9.00
2018-04-14T15:29:34.624Z,8.43
2018-04-14T15:32:02.923Z,9.53
2018-04-14T15:34:31.177Z,8.53
2018-04-14T15:36:59.137Z,8.50
2018-04-14T15:39:27.683Z,8.27
2018-04-14T15:41:56.449Z,8.70
2018-04-14T15:44:24.467Z,8.07
2018-04-14T15:46:53.005Z,7.97
2018-04-14T15:49:21.334Z,9.50
2018-04-14T15:51:50.681Z,8.73
2018-04-14T15:54:18.924Z,9.30
2018-04-14T15:56:46.662Z,8.60
2018-04-14T15:59:15.708Z,9.67
2018-04-14T16:01:43.577Z,9.77
2018-04-14T16:04:12.060Z,8.90
2018-04-14T16:06:43.681Z,9.30
2018-04-14T16:09:12.578Z,9.40
2018-04-14T16:11:40.233Z,9.83
2018-04-14T16:14:07.914Z,10.23
2018-04-14T16:16:35.745Z,10.93
2018-04-14T16:19:03.713Z,10.47
2018-04-14T16:21:32.530Z,9.23
2018-04-14T16:24:00.918Z,10.70
2018-04-14T16:26:29.447Z,10.57
2018-04-14T16:28:57.374Z,11.40
2018-04-14T16:31:26.017Z,10.67
2018-04-14T16:33:54.045Z,10.70
2018-04-14T16:36:21.962Z,9.87
2018-04-14T16:38:50.971Z,10.90
2018-04-14T16:41:20.985Z,10.60
2018-04-14T16:43:49.640Z,9.63
2018-04-14T16:46:18.136Z,9.43
2018-04-14T16:48:46.613Z,9.10
2018-04-14T16:51:14.871Z,9.73
2018-04-14T16:53:44.088Z,9.80
2018-04-14T16:56:12.060Z,10.37
2018-04-14T16:58:39.796Z,10.60
2018-04-14T17:01:07.679Z,9.27
2018-04-14T17:03:35.417Z,10.97
2018-04-14T17:06:04.102Z,8.70
2018-04-14T17:08:32.103Z,10.37
2018-04-14T17:11:00.352Z,11.60
2018-04-14T17:13:29.093Z,12.57
2018-04-14T17:15:56.959Z,12.67
2018-04-14T17:18:25.689Z,12.43
2018-04-14T17:20:55.646Z,10.93
2018-04-14T17:23:23.430Z,12.40
2018-04-14T17:25:51.959Z,11.27
2018-04-14T17:28:20.808Z,11.70
2018-04-14T17:30:49.256Z,10.97
2018-04-14T17:33:17.236Z,11.43
2018-04-14T17:35:46.016Z,10.90
2018-04-14T17:38:13.897Z,11.03
2018-04-14T17:40:41.769Z,10.63
2018-04-14T17:43:09.667Z,10.43
2018-04-14T17:45:38.269Z,10.43
2018-04-14T17:48:06.084Z,10.87
2018-04-14T17:50:34.648Z,12.33
2018-04-14T17:53:03.528Z,11.47
2018-04-14T17:55:32.011Z,13.17
2018-04-14T17:58:00.066Z,11.70
2018-04-14T18:00:28.534Z,11.33
2018-04-14T18:02:56.960Z,12.10
2018-04-14T18:05:25.948Z,11.20
2018-04-14T18:07:53.931Z,12.30
2018-04-14T18:10:22.160Z,12.93
2018-04-14T18:12:51.275Z,11.10
2018-04-14T18:15:19.223Z,11.30
2018-04-14T18:17:47.067Z,10.70
2018-04-14T18:20:15.563Z,11.23
2018-04-14T18:22:43.260Z,10.30
2018-04-14T18:25:11.123Z,10.40
2018-04-14T18:27:39.509Z,11.30
2018-04-14T18:30:07.673Z,10.10
2018-04-14T18:32:35.187Z,11.20
2018-04-14T18:35:02.962Z,11.17
2018-04-14T18:37:30.724Z,11.10
2018-04-14T18:39:58.623Z,15.47
2018-04-14T18:42:29.537Z,13.73
2018-04-14T18:44:57.837Z,13.73
2018-04-14T18:47:26.903Z,12.07
2018-04-14T18:49:54.966Z,12.17
2018-04-14T18:52:23.630Z,13.03
2018-04-14T18:54:51.284Z,12.83
2018-04-14T18:57:19.001Z,12.90
2018-04-14T18:59:48.240Z,11.83
2018-04-14T19:02:16.216Z,12.10
2018-04-14T19:04:44.074Z,12.07
2018-04-14T19:07:11.825Z,12.43
2018-04-14T19:09:39.686Z,12.13
2018-04-14T19:12:08.161Z,12.90
2018-04-14T19:14:36.118Z,14.20
2018-04-14T19:17:04.329Z,12.30
2018-04-14T19:19:32.260Z,12.43
2018-04-14T19:21:59.927Z,11.93
2018-04-14T19:24:28.233Z,12.40
2018-04-14T19:26:56.686Z,11.23
2018-04-14T19:29:25.258Z,12.00
2018-04-14T19:31:52.880Z,11.70
2018-04-14T19:34:21.293Z,11.73
2018-04-14T19:36:51.288Z,11.53
2018-04-14T19:39:19.257Z,12.60
2018-04-14T19:41:49.417Z,12.90
2018-04-14T19:44:17.884Z,12.60
2018-04-14T19:46:46.062Z,12.00
2018-04-14T19:49:13.752Z,13.00
2018-04-14T19:51:41.412Z,18.33
2018-04-14T19:54:10.195Z,17.80
2018-04-14T19:56:38.425Z,15.90
2018-04-14T19:59:06.515Z,16.43
2018-04-14T20:01:34.607Z,17.87
2018-04-14T20:04:02.427Z,14.17
2018-04-14T20:06:30.197Z,11.20
2018-04-14T20:08:57.894Z,12.33
2018-04-14T20:11:26.372Z,11.97
2018-04-14T20:13:54.380Z,10.53
2018-04-14T20:16:22.091Z,10.77
2018-04-14T20:18:49.922Z,10.40
2018-04-14T20:21:18.055Z,10.40
2018-04-14T20:23:45.712Z,9.70
2018-04-14T20:26:13.447Z,10.20
2018-04-14T20:28:41.311Z,9.67
2018-04-14T20:31:09.166Z,9.03
2018-04-14T20:33:37.291Z,8.40
2018-04-14T20:36:05.085Z,8.40
2018-04-14T20:38:32.894Z,9.77
2018-04-14T20:41:00.641Z,8.90
2018-04-14T20:43:28.451Z,17.73
2018-04-14T20:45:56.165Z,17.63
2018-04-14T20:48:24.069Z,9.43
2018-04-14T20:50:51.689Z,9.83
2018-04-14T20:53:20.230Z,10.00
2018-04-14T20:55:47.880Z,9.10
2018-04-14T20:58:15.672Z,9.60
2018-04-14T21:00:44.161Z,8.17
2018-04-14T21:03:12.903Z,8.87
2018-04-14T21:05:40.705Z,8.73
2018-04-14T21:08:09.385Z,8.10
2018-04-14T21:10:37.979Z,7.87
2018-04-14T21:13:06.282Z,7.43
2018-04-14T21:15:34.757Z,7.70
2018-04-14T21:18:02.520Z,6.33
2018-04-14T21:20:30.678Z,7.20
2018-04-14T21:22:58.582Z,7.63
2018-04-14T21:25:26.387Z,7.40
2018-04-14T21:27:54.281Z,7.33
2018-04-14T21:30:22.163Z,8.40
2018-04-14T21:32:50.379Z,6.80
2018-04-14T21:35:17.993Z,6.90
2018-04-14T21:37:46.287Z,6.40
2018-04-14T21:40:14.865Z,6.93
2018-04-14T21:42:42.549Z,7.73
2018-04-14T21:45:10.097Z,6.50
2018-04-14T21:47:37.815Z,6.90
2018-04-14T21:50:06.161Z,8.40
2018-04-14T21:52:35.367Z,7.70
2018-04-14T21:55:03.117Z,7.20
2018-04-14T21:57:31.628Z,5.70
2018-04-14T21:59:59.207Z,5.70
2018-04-14T22:02:26.981Z,6.30
2018-04-14T22:04:54.846Z,6.90
2018-04-14T22:07:22.605Z,7.30
2018-04-14T22:09:50.718Z,6.67
2018-04-14T22:35:03.754Z,46.23
2018-04-14T22:37:32.411Z,46.40
2018-04-14T22:40:00.386Z,46.60
2018-04-14T22:42:28.045Z,45.47
2018-04-14T22:44:55.789Z,46.80
2018-04-14T22:47:24.352Z,44.80
2018-04-14T22:49:52.104Z,48.70
2018-04-14T22:52:20.830Z,46.37
2018-04-14T22:54:49.008Z,46.90
2018-04-14T22:57:17.109Z,48.17
2018-04-14T22:59:44.779Z,47.67
2018-04-14T23:02:14.781Z,48.30
2018-04-14T23:04:44.340Z,51.17
2018-04-14T23:07:12.464Z,46.93
2018-04-14T23:09:40.365Z,46.40
2018-04-14T23:12:08.314Z,46.30
2018-04-14T23:14:36.977Z,49.33
2018-04-14T23:17:05.697Z,50.00
2018-04-14T23:19:35.229Z,47.73
2018-04-14T23:22:04.169Z,47.93
2018-04-14T23:24:31.913Z,48.57
2018-04-14T23:27:00.738Z,48.83
2018-04-14T23:29:28.985Z,47.17
2018-04-14T23:31:56.776Z,47.70
2018-04-14T23:34:25.586Z,47.60
2018-04-14T23:36:53.606Z,58.33
2018-04-14T23:39:21.373Z,106.67
2018-04-14T23:41:49.162Z,75.07
2018-04-14T23:44:17.032Z,56.70
2018-04-14T23:46:46.528Z,55.03
2018-04-14T23:49:14.822Z,52.90
2018-04-14T23:51:43.093Z,50.93
2018-04-14T23:54:11.615Z,49.50
2018-04-14T23:56:40.083Z,52.62
2018-04-14T23:59:07.767Z,50.87
